createdAt,value
2022-10-24T00:01:24.265Z,95568.22
2022-10-24T00:03:52.396Z,95568.44
2022-10-24T00:06:21.747Z,95546.94
2022-10-24T00:08:53.679Z,95543.16
2022-10-24T00:11:24.246Z,95558.63
2022-10-24T00:13:52.723Z,95560.00
2022-10-24T00:16:20.983Z,95548.97
2022-10-24T00:18:49.008Z,95550.38
2022-10-24T00:21:17.514Z,95519.72
2022-10-24T00:23:45.193Z,95506.00
2022-10-24T00:26:15.721Z,95528.78
2022-10-24T00:28:44.441Z,95525.53
2022-10-24T00:31:15.594Z,95512.84
2022-10-24T00:33:44.182Z,95497.84
2022-10-24T00:36:14.385Z,95505.28
2022-10-24T00:38:42.518Z,95499.00
2022-10-24T00:41:15.282Z,95501.25
2022-10-24T00:43:44.317Z,95515.28
2022-10-24T00:46:13.250Z,95510.72
2022-10-24T00:48:44.724Z,95501.59
2022-10-24T00:51:21.917Z,95506.28
2022-10-24T00:53:52.648Z,95497.06
2022-10-24T00:56:26.815Z,95502.81
2022-10-24T00:58:58.827Z,95488.31
2022-10-24T01:01:27.628Z,95454.75
2022-10-24T01:03:55.390Z,95446.44
2022-10-24T01:06:37.799Z,95447.69
2022-10-24T01:09:16.086Z,95458.56
2022-10-24T01:11:56.537Z,95472.31
2022-10-24T01:14:33.925Z,95474.34
2022-10-24T01:17:09.916Z,95474.72
2022-10-24T01:20:05.887Z,95471.47
2022-10-24T01:22:44.167Z,95467.38
2022-10-24T01:25:16.149Z,95466.69
2022-10-24T01:27:57.989Z,95463.78
2022-10-24T01:30:30.884Z,95462.56
2022-10-24T01:33:01.843Z,95458.72
2022-10-24T01:35:37.787Z,95455.84
2022-10-24T01:38:13.753Z,95447.78
2022-10-24T01:40:48.587Z,95446.25
2022-10-24T01:43:19.162Z,95441.16
2022-10-24T01:45:52.177Z,95441.94
2022-10-24T01:48:22.878Z,95456.75
2022-10-24T01:50:54.585Z,95456.16
2022-10-24T01:53:25.210Z,95453.88
2022-10-24T01:55:55.298Z,95450.50
2022-10-24T01:58:23.080Z,95454.03
2022-10-24T02:00:55.894Z,95446.59
2022-10-24T02:03:27.990Z,95446.00
2022-10-24T02:06:00.600Z,95438.00
2022-10-24T02:08:33.847Z,95434.28
2022-10-24T02:11:05.928Z,95432.88
2022-10-24T02:13:39.191Z,95439.34
2022-10-24T02:16:09.811Z,95418.94
2022-10-24T02:18:40.234Z,95418.13
2022-10-24T02:21:17.685Z,95444.47
2022-10-24T02:23:51.626Z,95460.63
2022-10-24T02:26:25.263Z,95446.34
2022-10-24T02:28:59.558Z,95439.88
2022-10-24T02:31:34.755Z,95445.56
2022-10-24T02:34:04.540Z,95452.84
2022-10-24T02:36:35.385Z,95435.81
2022-10-24T02:39:06.221Z,95451.34
2022-10-24T02:41:37.252Z,95439.88
2022-10-24T02:44:06.743Z,95438.72
2022-10-24T02:46:37.410Z,95446.47
2022-10-24T02:49:05.907Z,95451.09
2022-10-24T02:51:38.341Z,95456.56
2022-10-24T02:54:06.466Z,95459.47
2022-10-24T02:56:36.225Z,95449.69
2022-10-24T02:59:04.266Z,95439.13
2022-10-24T03:01:32.361Z,95454.72
2022-10-24T03:04:01.439Z,95453.41
2022-10-24T03:06:29.471Z,95453.09
2022-10-24T03:08:57.175Z,95448.91
2022-10-24T03:11:25.675Z,95461.53
2022-10-24T03:13:53.320Z,95467.00
2022-10-24T03:16:21.122Z,95469.34
2022-10-24T03:18:49.627Z,95472.59
2022-10-24T03:21:19.349Z,95468.19
2022-10-24T03:23:47.032Z,95465.19
2022-10-24T03:26:15.466Z,95471.69
2022-10-24T03:28:43.088Z,95483.38
2022-10-24T03:31:11.129Z,95480.72
2022-10-24T03:33:38.810Z,95483.16
2022-10-24T03:36:07.923Z,95485.34
2022-10-24T03:38:37.678Z,95476.44
2022-10-24T03:41:05.742Z,95466.31
2022-10-24T03:43:33.518Z,95456.25
2022-10-24T03:46:01.175Z,95458.19
2022-10-24T03:48:28.891Z,95449.72
2022-10-24T03:50:56.700Z,95463.31
2022-10-24T03:53:25.172Z,95446.09
2022-10-24T03:55:54.892Z,95452.97
2022-10-24T03:58:22.878Z,95454.25
2022-10-24T04:00:50.978Z,95458.09
2022-10-24T04:03:19.224Z,95465.75
2022-10-24T04:05:46.868Z,95461.91
2022-10-24T04:08:14.825Z,95474.56
2022-10-24T04:10:42.470Z,95475.38
2022-10-24T04:13:12.339Z,95480.28
2022-10-24T04:15:40.168Z,95473.53
2022-10-24T04:18:10.071Z,95486.53
2022-10-24T04:20:37.759Z,95485.00
2022-10-24T04:23:06.060Z,95490.47
2022-10-24T04:25:33.719Z,95488.72
2022-10-24T04:28:02.076Z,95485.94
2022-10-24T04:30:31.072Z,95480.50
2022-10-24T04:32:58.825Z,95477.84
2022-10-24T04:35:26.881Z,95482.13
2022-10-24T04:37:54.898Z,95475.00
2022-10-24T04:40:22.577Z,95465.59
2022-10-24T04:42:50.607Z,95469.56
2022-10-24T04:45:18.538Z,95494.63
2022-10-24T04:47:47.970Z,95481.75
2022-10-24T04:50:15.765Z,95472.38
2022-10-24T04:52:44.067Z,95483.41
2022-10-24T04:55:11.703Z,95479.31
2022-10-24T04:57:39.772Z,95473.88
2022-10-24T05:00:08.832Z,95493.03
2022-10-24T05:02:36.930Z,95488.72
2022-10-24T05:05:06.578Z,95501.84
2022-10-24T05:07:34.660Z,95514.38
2022-10-24T05:10:02.333Z,95515.16
2022-10-24T05:12:30.145Z,95518.28
2022-10-24T05:14:57.931Z,95519.91
2022-10-24T05:17:26.027Z,95515.06
2022-10-24T05:19:54.001Z,95523.84
2022-10-24T05:22:23.975Z,95534.25
2022-10-24T05:24:52.098Z,95531.34
2022-10-24T05:27:25.051Z,95531.63
2022-10-24T05:29:53.108Z,95539.16
2022-10-24T05:32:21.920Z,95536.97
2022-10-24T05:34:49.972Z,95549.50
2022-10-24T05:37:18.541Z,95546.25
2022-10-24T05:39:47.612Z,95548.56
2022-10-24T05:42:15.972Z,95537.69
2022-10-24T05:44:43.635Z,95534.81
2022-10-24T05:47:12.039Z,95535.03
2022-10-24T05:49:39.771Z,95531.91
2022-10-24T05:52:08.020Z,95523.91
2022-10-24T05:54:48.448Z,95513.22
2022-10-24T05:57:24.777Z,95516.91
2022-10-24T05:59:52.394Z,95507.41
2022-10-24T06:02:21.674Z,95512.84
2022-10-24T06:04:50.661Z,95516.22
2022-10-24T06:07:19.456Z,95518.31
2022-10-24T06:09:47.147Z,95515.66
2022-10-24T06:12:15.112Z,95519.34
2022-10-24T06:14:45.073Z,95511.31
2022-10-24T06:17:13.181Z,95515.72
2022-10-24T06:19:41.283Z,95506.84
2022-10-24T06:22:09.678Z,95503.97
2022-10-24T06:24:39.164Z,95506.81
2022-10-24T06:27:07.853Z,95505.22
2022-10-24T06:29:35.811Z,95502.53
2022-10-24T06:32:05.237Z,95502.38
2022-10-24T06:34:33.521Z,95499.22
2022-10-24T06:37:01.147Z,95493.53
2022-10-24T06:39:29.717Z,95499.94
2022-10-24T06:41:57.556Z,95494.22
2022-10-24T06:44:27.541Z,95500.03
2022-10-24T06:46:55.185Z,95490.16
2022-10-24T06:49:24.538Z,95500.31
2022-10-24T06:51:52.213Z,95494.03
2022-10-24T06:54:19.854Z,95500.75
2022-10-24T06:56:47.532Z,95505.22
2022-10-24T06:59:18.186Z,95519.84
2022-10-24T07:01:45.963Z,95499.63
2022-10-24T07:04:14.655Z,95516.34
2022-10-24T07:06:43.738Z,95537.72
2022-10-24T07:09:15.252Z,95545.16
2022-10-24T07:11:43.962Z,95571.38
2022-10-24T07:14:12.070Z,95567.63
2022-10-24T07:16:40.455Z,95567.03
2022-10-24T07:19:08.787Z,95571.13
2022-10-24T07:21:36.515Z,95574.75
2022-10-24T07:24:06.842Z,95578.44
2022-10-24T07:26:34.501Z,95572.53
2022-10-24T07:31:37.184Z,95584.03
2022-10-24T07:34:07.965Z,95589.13
2022-10-24T07:36:40.070Z,95575.34
2022-10-24T07:39:13.558Z,95585.06
2022-10-24T07:41:42.145Z,95581.00
2022-10-24T07:44:11.217Z,95576.38
2022-10-24T07:46:39.346Z,95579.13
2022-10-24T07:49:08.941Z,95571.72
2022-10-24T07:51:36.567Z,95562.19
2022-10-24T07:54:04.358Z,95556.97
2022-10-24T07:56:33.510Z,95564.50
2022-10-24T07:59:09.051Z,95559.72
2022-10-24T08:01:37.399Z,95563.56
2022-10-24T08:04:05.538Z,95567.63
2022-10-24T08:06:33.835Z,95568.53
2022-10-24T08:09:01.975Z,95565.03
2022-10-24T08:11:31.357Z,95552.59
2022-10-24T08:14:02.579Z,95549.03
2022-10-24T08:16:30.366Z,95547.81
2022-10-24T08:18:59.387Z,95544.72
2022-10-24T08:21:27.307Z,95546.78
2022-10-24T08:23:56.454Z,95551.91
2022-10-24T08:26:25.822Z,95529.59
2022-10-24T08:28:55.275Z,95533.06
2022-10-24T08:31:26.180Z,95533.41
2022-10-24T08:33:56.211Z,95556.81
2022-10-24T08:36:26.810Z,95546.94
2022-10-24T08:38:55.275Z,95552.13
2022-10-24T08:41:32.318Z,95556.31
2022-10-24T08:44:02.932Z,95543.28
2022-10-24T08:46:48.866Z,95548.63
2022-10-24T08:49:24.934Z,95543.75
2022-10-24T08:51:56.345Z,95539.41
2022-10-24T08:54:29.857Z,95542.09
2022-10-24T08:56:59.849Z,95536.66
2022-10-24T08:59:31.369Z,95527.47
2022-10-24T09:02:04.563Z,95530.38
2022-10-24T09:04:40.536Z,95533.81
2022-10-24T09:07:15.049Z,95530.81
2022-10-24T09:09:47.949Z,95526.94
2022-10-24T09:12:18.025Z,95526.16
2022-10-24T09:14:48.652Z,95525.03
2022-10-24T09:17:21.973Z,95523.09
2022-10-24T09:19:53.797Z,95526.78
2022-10-24T09:22:22.750Z,95537.78
2022-10-24T09:24:54.854Z,95540.78
2022-10-24T09:27:26.609Z,95530.94
2022-10-24T09:29:54.858Z,95530.63
2022-10-24T09:32:27.107Z,95540.72
2022-10-24T09:34:56.058Z,95542.97
2022-10-24T09:37:42.533Z,95536.00
2022-10-24T09:40:19.588Z,95552.75
2022-10-24T09:43:07.992Z,95558.28
2022-10-24T09:45:41.343Z,95567.22
2022-10-24T09:48:26.090Z,95567.19
2022-10-24T09:50:58.053Z,95579.44
2022-10-24T09:53:28.122Z,95575.94
2022-10-24T09:55:59.542Z,95581.19
2022-10-24T09:58:32.659Z,95581.25
2022-10-24T10:01:05.189Z,95578.53
2022-10-24T10:03:35.315Z,95577.03
2022-10-24T10:06:15.611Z,95596.44
2022-10-24T10:08:51.102Z,95592.94
2022-10-24T10:11:26.586Z,95584.09
2022-10-24T10:13:55.460Z,95601.78
2022-10-24T10:16:26.962Z,95606.63
2022-10-24T10:19:05.242Z,95611.69
2022-10-24T10:21:55.376Z,95606.16
2022-10-24T10:24:36.942Z,95612.38
2022-10-24T10:27:26.115Z,95612.38
2022-10-24T10:30:09.983Z,95622.75
2022-10-24T10:32:45.734Z,95635.19
2022-10-24T10:35:21.261Z,95643.31
2022-10-24T10:37:52.142Z,95647.13
2022-10-24T10:40:29.732Z,95651.09
2022-10-24T10:43:11.556Z,95657.19
2022-10-24T10:45:46.546Z,95651.38
2022-10-24T10:48:30.237Z,95659.13
2022-10-24T10:51:08.173Z,95658.13
2022-10-24T10:53:40.082Z,95661.22
2022-10-24T10:56:22.971Z,95672.19
2022-10-24T10:59:05.365Z,95660.94
2022-10-24T11:01:45.208Z,95661.16
2022-10-24T11:04:22.979Z,95661.75
2022-10-24T11:09:38.071Z,95672.31
2022-10-24T11:12:13.271Z,95668.59
2022-10-24T11:14:46.096Z,95661.13
2022-10-24T11:17:18.323Z,95649.53
2022-10-24T11:19:55.738Z,95662.78
2022-10-24T11:22:30.161Z,95649.66
2022-10-24T11:25:03.612Z,95660.91
2022-10-24T11:27:39.686Z,95659.88
2022-10-24T11:30:15.150Z,95666.84
2022-10-24T11:32:49.174Z,95671.94
2022-10-24T11:35:25.520Z,95669.97
2022-10-24T11:37:59.427Z,95671.47
2022-10-24T11:43:12.108Z,95675.56
2022-10-24T11:45:46.706Z,95689.59
2022-10-24T11:48:20.334Z,95676.47
2022-10-24T11:50:52.429Z,95681.94
2022-10-24T11:53:48.053Z,95673.56
2022-10-24T11:56:23.641Z,95670.53
2022-10-24T11:58:58.426Z,95666.63
2022-10-24T12:01:53.205Z,95656.84
2022-10-24T12:04:45.975Z,95645.00
2022-10-24T12:07:51.754Z,95651.16
2022-10-24T12:10:35.437Z,95650.00
2022-10-24T12:13:19.756Z,95660.78
2022-10-24T12:15:55.580Z,95650.47
2022-10-24T12:18:30.563Z,95639.53
2022-10-24T12:21:02.841Z,95640.09
2022-10-24T12:23:31.846Z,95628.72
2022-10-24T12:26:06.481Z,95615.69
2022-10-24T12:28:35.341Z,95610.00
2022-10-24T12:31:13.000Z,95611.88
2022-10-24T12:33:41.168Z,95626.41
2022-10-24T12:36:09.462Z,95636.81
2022-10-24T12:39:09.211Z,95637.63
2022-10-24T12:41:41.297Z,95635.44
2022-10-24T12:44:38.891Z,95612.72
2022-10-24T12:47:35.121Z,95576.59
2022-10-24T12:50:40.372Z,95585.97
2022-10-24T12:53:20.455Z,95561.03
2022-10-24T12:56:11.905Z,95554.09
2022-10-24T12:58:43.048Z,95543.44
2022-10-24T13:01:24.105Z,95530.13
2022-10-24T13:04:40.376Z,95519.75
2022-10-24T13:07:22.850Z,95528.44
2022-10-24T13:10:13.987Z,95537.63
2022-10-24T13:12:57.630Z,95523.78
2022-10-24T13:15:46.025Z,95514.41
2022-10-24T13:18:25.208Z,95496.63
2022-10-24T13:21:15.250Z,95509.03
2022-10-24T13:23:45.235Z,95508.59
2022-10-24T13:26:37.312Z,95504.78
2022-10-24T13:29:06.031Z,95503.06
2022-10-24T13:31:49.828Z,95506.84
2022-10-24T13:34:26.935Z,95511.66
2022-10-24T13:37:02.409Z,95522.22
2022-10-24T13:39:37.534Z,95538.72
2022-10-24T13:42:23.664Z,95556.88
2022-10-24T13:44:55.221Z,95540.63
2022-10-24T13:47:26.873Z,95556.38
2022-10-24T13:49:58.759Z,95548.22
2022-10-24T13:52:33.354Z,95548.06
2022-10-24T13:55:14.960Z,95550.41
2022-10-24T13:57:54.980Z,95547.72
2022-10-24T14:00:25.842Z,95524.69
2022-10-24T14:02:55.636Z,95517.28
2022-10-24T14:05:35.681Z,95534.09
2022-10-24T14:08:05.098Z,95535.72
2022-10-24T14:10:33.378Z,95548.16
2022-10-24T14:13:03.392Z,95529.00
2022-10-24T14:15:33.788Z,95526.53
2022-10-24T14:18:04.105Z,95519.94
2022-10-24T14:20:34.215Z,95527.09
2022-10-24T14:23:02.838Z,95533.06
2022-10-24T14:25:35.259Z,95531.69
2022-10-24T14:28:12.498Z,95530.94
2022-10-24T14:30:40.223Z,95540.38
2022-10-24T14:33:22.495Z,95543.28
2022-10-24T14:35:53.583Z,95544.91
2022-10-24T14:38:25.591Z,95541.78
2022-10-24T14:41:07.928Z,95545.31
2022-10-24T14:43:42.449Z,95549.84
2022-10-24T14:46:27.904Z,95538.28
2022-10-24T14:48:55.812Z,95535.44
2022-10-24T14:51:28.263Z,95534.88
2022-10-24T14:53:57.427Z,95531.56
2022-10-24T14:56:28.230Z,95528.09
2022-10-24T14:58:59.658Z,95512.16
2022-10-24T15:01:27.494Z,95526.28
2022-10-24T15:03:57.273Z,95527.50
2022-10-24T15:06:27.355Z,95534.59
2022-10-24T15:09:04.772Z,95531.22
2022-10-24T15:11:38.514Z,95527.41
2022-10-24T15:14:34.518Z,95543.75
2022-10-24T15:17:19.971Z,95550.72
2022-10-24T15:19:49.765Z,95558.34
2022-10-24T15:22:27.679Z,95558.97
2022-10-24T15:24:57.693Z,95558.25
2022-10-24T15:27:28.263Z,95561.16
2022-10-24T15:29:57.749Z,95566.84
2022-10-24T15:32:26.530Z,95572.66
2022-10-24T15:34:55.434Z,95577.63
2022-10-24T15:37:25.452Z,95578.44
2022-10-24T15:39:54.225Z,95590.34
2022-10-24T15:42:22.675Z,95593.13
2022-10-24T15:44:50.921Z,95587.31
2022-10-24T15:47:23.707Z,95586.75
2022-10-24T15:49:52.679Z,95581.34
2022-10-24T15:52:20.405Z,95581.88
2022-10-24T15:54:48.062Z,95577.88
2022-10-24T15:57:20.511Z,95567.88
2022-10-24T15:59:48.438Z,95577.91
2022-10-24T16:02:19.644Z,95583.38
2022-10-24T16:04:49.317Z,95586.13
2022-10-24T16:07:17.132Z,95590.13
2022-10-24T16:09:45.261Z,95593.38
2022-10-24T16:12:13.555Z,95589.44
2022-10-24T16:14:41.867Z,95587.03
2022-10-24T16:17:09.485Z,95589.31
2022-10-24T16:19:37.468Z,95585.38
2022-10-24T16:22:07.558Z,95581.44
2022-10-24T16:24:35.550Z,95578.41
2022-10-24T16:27:03.184Z,95576.88
2022-10-24T16:29:30.845Z,95578.97
2022-10-24T16:31:58.496Z,95569.88
2022-10-24T16:34:26.129Z,95566.72
2022-10-24T16:36:54.862Z,95558.72
2022-10-24T16:39:24.439Z,95574.69
2022-10-24T16:41:55.437Z,95585.38
2022-10-24T16:44:23.130Z,95588.31
2022-10-24T16:46:53.923Z,95590.31
2022-10-24T16:49:21.584Z,95590.09
2022-10-24T16:51:49.774Z,95589.50
2022-10-24T16:54:19.048Z,95605.63
2022-10-24T16:56:53.364Z,95597.00
2022-10-24T16:59:21.675Z,95604.63
2022-10-24T17:01:50.050Z,95604.91
2022-10-24T17:04:17.898Z,95599.56
2022-10-24T17:06:45.914Z,95596.50
2022-10-24T17:09:13.710Z,95598.75
2022-10-24T17:11:46.001Z,95595.38
2022-10-24T17:14:15.592Z,95596.00
2022-10-24T17:16:44.933Z,95598.63
2022-10-24T17:19:16.239Z,95599.28
2022-10-24T17:21:46.913Z,95600.00
2022-10-24T17:24:16.826Z,95594.31
2022-10-24T17:26:44.832Z,95591.06
2022-10-24T17:29:16.435Z,95598.63
2022-10-24T17:31:44.315Z,95601.31
2022-10-24T17:34:12.181Z,95592.97
2022-10-24T17:36:42.739Z,95598.59
2022-10-24T17:39:15.400Z,95605.63
2022-10-24T17:41:45.153Z,95614.22
2022-10-24T17:44:19.157Z,95609.31
2022-10-24T17:46:47.863Z,95599.72
2022-10-24T17:49:20.862Z,95607.06
2022-10-24T17:51:50.161Z,95608.22
2022-10-24T17:54:18.608Z,95599.56
2022-10-24T17:56:46.399Z,95598.34
2022-10-24T17:59:14.783Z,95606.09
2022-10-24T18:01:44.544Z,95602.25
2022-10-24T18:04:12.827Z,95603.88
2022-10-24T18:06:43.380Z,95597.66
2022-10-24T18:09:11.745Z,95597.06
2022-10-24T18:11:39.971Z,95594.78
2022-10-24T18:14:07.978Z,95589.31
2022-10-24T18:16:37.009Z,95597.63
2022-10-24T18:19:07.331Z,95583.63
2022-10-24T18:21:35.430Z,95581.75
2022-10-24T18:24:09.204Z,95579.44
2022-10-24T18:26:37.865Z,95574.59
2022-10-24T18:29:05.622Z,95577.41
2022-10-24T18:31:35.208Z,95576.50
2022-10-24T18:34:06.267Z,95585.09
2022-10-24T18:36:38.550Z,95580.66
2022-10-24T18:39:07.100Z,95581.63
2022-10-24T18:41:43.278Z,95589.16
2022-10-24T18:44:23.766Z,95594.66
2022-10-24T18:46:52.931Z,95598.38
2022-10-24T18:49:21.426Z,95601.00
2022-10-24T18:51:58.562Z,95601.25
2022-10-24T18:54:28.388Z,95591.88
2022-10-24T18:56:57.371Z,95588.09
2022-10-24T18:59:26.003Z,95574.34
2022-10-24T19:02:09.446Z,95578.94
2022-10-24T19:04:42.297Z,95599.16
2022-10-24T19:07:11.884Z,95606.91
2022-10-24T19:09:39.741Z,95608.63
2022-10-24T19:12:08.142Z,95614.97
2022-10-24T19:14:36.186Z,95611.44
2022-10-24T19:17:04.332Z,95618.53
2022-10-24T19:19:35.710Z,95607.56
2022-10-24T19:22:03.405Z,95612.16
2022-10-24T19:24:32.584Z,95615.56
2022-10-24T19:27:00.266Z,95613.00
2022-10-24T19:29:27.916Z,95623.72
2022-10-24T19:31:55.579Z,95612.00
2022-10-24T19:34:23.242Z,95614.06
2022-10-24T19:36:50.882Z,95611.28
2022-10-24T19:39:19.018Z,95610.56
2022-10-24T19:41:47.999Z,95604.03
2022-10-24T19:44:16.034Z,95617.19
2022-10-24T19:46:43.714Z,95609.94
2022-10-24T19:49:11.549Z,95607.13
2022-10-24T19:51:39.462Z,95611.78
2022-10-24T19:54:07.504Z,95609.78
2022-10-24T19:56:35.846Z,95619.00
2022-10-24T19:59:04.821Z,95622.31
2022-10-24T20:01:33.230Z,95616.94
2022-10-24T20:04:01.911Z,95619.44
2022-10-24T20:06:29.592Z,95621.56
2022-10-24T20:08:57.290Z,95625.47
2022-10-24T20:11:25.398Z,95622.81
2022-10-24T20:13:53.106Z,95625.53
2022-10-24T20:16:22.314Z,95623.09
2022-10-24T20:18:50.039Z,95623.94
2022-10-24T20:21:19.725Z,95630.22
2022-10-24T20:23:48.948Z,95626.06
2022-10-24T20:26:18.697Z,95632.59
2022-10-24T20:28:48.343Z,95630.66
2022-10-24T20:31:23.027Z,95618.59
2022-10-24T20:33:50.906Z,95625.28
2022-10-24T20:36:20.673Z,95634.16
2022-10-24T20:38:48.496Z,95638.91
2022-10-24T20:41:16.552Z,95641.34
2022-10-24T20:43:44.228Z,95646.31
2022-10-24T20:46:12.225Z,95642.66
2022-10-24T20:48:41.237Z,95644.56
2022-10-24T20:51:10.602Z,95652.03
2022-10-24T20:53:38.777Z,95659.81
2022-10-24T20:56:08.506Z,95663.66
2022-10-24T20:58:38.697Z,95671.03
2022-10-24T21:01:07.866Z,95684.41
2022-10-24T21:03:36.372Z,95686.09
2022-10-24T21:06:07.420Z,95700.84
2022-10-24T21:08:35.055Z,95713.91
2022-10-24T21:11:06.650Z,95724.53
2022-10-24T21:13:34.345Z,95719.75
2022-10-24T21:16:02.752Z,95723.13
2022-10-24T21:18:30.383Z,95735.81
2022-10-24T21:20:58.569Z,95723.88
2022-10-24T21:23:27.551Z,95721.38
2022-10-24T21:26:02.264Z,95731.94
2022-10-24T21:28:30.236Z,95743.22
2022-10-24T21:30:57.891Z,95737.94
2022-10-24T21:33:25.561Z,95728.72
2022-10-24T21:35:53.221Z,95729.69
2022-10-24T21:38:20.826Z,95743.81
2022-10-24T21:40:49.902Z,95742.59
2022-10-24T21:43:17.501Z,95749.66
2022-10-24T21:45:45.237Z,95751.28
2022-10-24T21:48:15.711Z,95751.09
2022-10-24T21:53:12.378Z,95756.63
2022-10-24T21:55:39.986Z,95761.31
2022-10-24T21:58:09.431Z,95759.25
2022-10-24T22:00:40.233Z,95751.69
2022-10-24T22:03:08.106Z,95752.47
2022-10-24T22:05:35.766Z,95755.94
2022-10-24T22:08:03.441Z,95760.03
2022-10-24T22:10:31.076Z,95765.19
2022-10-24T22:12:59.214Z,95768.84
2022-10-24T22:15:28.225Z,95767.03
2022-10-24T22:20:44.934Z,95762.78
2022-10-24T22:23:13.504Z,95758.66
2022-10-24T22:25:41.427Z,95764.41
2022-10-24T22:28:09.831Z,95752.75
2022-10-24T22:30:39.414Z,95755.41
2022-10-24T22:33:08.818Z,95761.53
2022-10-24T22:35:37.285Z,95764.84
2022-10-24T22:38:05.742Z,95771.38
2022-10-24T22:40:34.051Z,95784.06
2022-10-24T22:43:03.090Z,95784.50
2022-10-24T22:45:31.400Z,95783.25
2022-10-24T22:48:11.590Z,95783.69
2022-10-24T22:50:49.555Z,95787.38
2022-10-24T22:53:20.323Z,95774.69
2022-10-24T22:56:03.295Z,95775.50
2022-10-24T22:58:31.679Z,95781.47
2022-10-24T23:01:04.623Z,95784.09
2022-10-24T23:03:44.189Z,95787.00
2022-10-24T23:06:17.967Z,95792.09
2022-10-24T23:08:47.399Z,95789.44
2022-10-24T23:11:15.747Z,95788.63
2022-10-24T23:13:44.245Z,95790.06
2022-10-24T23:16:22.474Z,95795.56
2022-10-24T23:18:52.515Z,95796.59
2022-10-24T23:21:27.141Z,95797.19
2022-10-24T23:23:55.413Z,95790.25
2022-10-24T23:26:33.528Z,95795.78
2022-10-24T23:29:09.767Z,95796.81
2022-10-24T23:31:38.274Z,95801.31
2022-10-24T23:34:09.648Z,95796.81
2022-10-24T23:36:43.767Z,95800.47
2022-10-24T23:39:13.027Z,95801.69
2022-10-24T23:41:41.713Z,95803.31
2022-10-24T23:44:11.631Z,95802.91
2022-10-24T23:46:44.428Z,95796.16
2022-10-24T23:49:23.878Z,95802.91
2022-10-24T23:52:01.947Z,95795.34
2022-10-24T23:54:33.402Z,95798.22
2022-10-24T23:57:01.680Z,95793.88
2022-10-24T23:59:33.735Z,95795.94
